sensor_id;sensor_type;location;lat;lon;timestamp;pressure;altitude;pressure_sealevel;temperature;humidity
74561;BME280;62979;55.720;37.606;2023-03-24T00:00:27;98474.66;;;10.48;57.02
74561;BME280;62979;55.720;37.606;2023-03-24T00:02:53;98480.41;;;10.36;57.08
74561;BME280;62979;55.720;37.606;2023-03-24T00:05:21;98466.50;;;10.35;57.28
74561;BME280;62979;55.720;37.606;2023-03-24T00:07:48;98460.44;;;10.35;57.33
74561;BME280;62979;55.720;37.606;2023-03-24T00:10:18;98471.88;;;10.32;57.24
74561;BME280;62979;55.720;37.606;2023-03-24T00:12:47;98442.50;;;10.25;57.47
74561;BME280;62979;55.720;37.606;2023-03-24T00:15:16;98458.94;;;10.29;57.57
74561;BME280;62979;55.720;37.606;2023-03-24T00:17:46;98456.09;;;10.34;57.39
74561;BME280;62979;55.720;37.606;2023-03-24T00:20:16;98447.22;;;10.38;57.54
74561;BME280;62979;55.720;37.606;2023-03-24T00:22:46;98476.91;;;10.37;57.46
74561;BME280;62979;55.720;37.606;2023-03-24T00:25:16;98458.84;;;10.31;57.65
74561;BME280;62979;55.720;37.606;2023-03-24T00:27:44;98452.78;;;10.30;57.80
74561;BME280;62979;55.720;37.606;2023-03-24T00:30:13;98452.13;;;10.25;57.79
74561;BME280;62979;55.720;37.606;2023-03-24T00:32:42;98431.47;;;10.19;57.99
74561;BME280;62979;55.720;37.606;2023-03-24T00:35:13;98432.19;;;10.22;57.87
74561;BME280;62979;55.720;37.606;2023-03-24T00:37:42;98432.06;;;10.25;58.00
74561;BME280;62979;55.720;37.606;2023-03-24T00:40:12;98426.81;;;10.25;57.88
74561;BME280;62979;55.720;37.606;2023-03-24T00:42:42;98424.03;;;10.30;57.83
74561;BME280;62979;55.720;37.606;2023-03-24T00:45:12;98418.03;;;10.28;57.88
74561;BME280;62979;55.720;37.606;2023-03-24T00:47:42;98415.16;;;10.34;57.73
74561;BME280;62979;55.720;37.606;2023-03-24T00:50:14;98411.44;;;10.19;57.98
74561;BME280;62979;55.720;37.606;2023-03-24T00:52:43;98403.59;;;10.19;57.70
74561;BME280;62979;55.720;37.606;2023-03-24T00:55:12;98418.75;;;10.32;57.87
74561;BME280;62979;55.720;37.606;2023-03-24T00:57:40;98406.53;;;10.32;57.74
74561;BME280;62979;55.720;37.606;2023-03-24T01:00:15;98409.38;;;10.26;58.05
74561;BME280;62979;55.720;37.606;2023-03-24T01:02:46;98387.53;;;10.28;58.11
74561;BME280;62979;55.720;37.606;2023-03-24T01:05:19;98398.22;;;10.22;57.84
74561;BME280;62979;55.720;37.606;2023-03-24T01:07:46;98406.13;;;10.21;58.26
74561;BME280;62979;55.720;37.606;2023-03-24T01:10:17;98399.00;;;10.24;58.21
74561;BME280;62979;55.720;37.606;2023-03-24T01:12:50;98397.59;;;10.17;58.16
74561;BME280;62979;55.720;37.606;2023-03-24T01:15:20;98398.22;;;10.22;58.20
74561;BME280;62979;55.720;37.606;2023-03-24T01:17:49;98422.44;;;10.26;57.74
74561;BME280;62979;55.720;37.606;2023-03-24T01:20:19;98434.44;;;10.32;57.44
74561;BME280;62979;55.720;37.606;2023-03-24T01:22:48;98441.72;;;10.23;57.37
74561;BME280;62979;55.720;37.606;2023-03-24T01:25:17;98409.31;;;10.27;57.19
74561;BME280;62979;55.720;37.606;2023-03-24T01:27:47;98430.66;;;10.39;56.98
74561;BME280;62979;55.720;37.606;2023-03-24T01:30:18;98428.16;;;10.36;57.00
74561;BME280;62979;55.720;37.606;2023-03-24T01:32:47;98420.25;;;10.37;56.88
74561;BME280;62979;55.720;37.606;2023-03-24T01:35:14;98404.44;;;10.40;57.02
74561;BME280;62979;55.720;37.606;2023-03-24T01:37:42;98394.81;;;10.41;56.88
74561;BME280;62979;55.720;37.606;2023-03-24T01:40:16;98404.38;;;10.42;57.01
74561;BME280;62979;55.720;37.606;2023-03-24T01:42:44;98398.09;;;10.25;57.43
74561;BME280;62979;55.720;37.606;2023-03-24T01:45:41;98386.63;;;10.30;57.42
74561;BME280;62979;55.720;37.606;2023-03-24T01:48:12;98384.84;;;10.30;57.47
74561;BME280;62979;55.720;37.606;2023-03-24T01:50:45;98398.94;;;10.26;57.62
74561;BME280;62979;55.720;37.606;2023-03-24T01:53:19;98387.03;;;10.19;58.10
74561;BME280;62979;55.720;37.606;2023-03-24T01:55:47;98382.34;;;10.27;57.61
74561;BME280;62979;55.720;37.606;2023-03-24T01:58:14;98394.97;;;10.17;58.19
74561;BME280;62979;55.720;37.606;2023-03-24T02:00:43;98374.84;;;10.19;58.39
74561;BME280;62979;55.720;37.606;2023-03-24T02:03:14;98382.03;;;10.14;58.23
74561;BME280;62979;55.720;37.606;2023-03-24T02:05:46;98378.50;;;10.15;58.22
74561;BME280;62979;55.720;37.606;2023-03-24T02:08:19;98378.84;;;10.07;58.51
74561;BME280;62979;55.720;37.606;2023-03-24T02:10:51;98368.50;;;10.04;58.49
74561;BME280;62979;55.720;37.606;2023-03-24T02:13:20;98359.38;;;10.15;58.33
74561;BME280;62979;55.720;37.606;2023-03-24T02:16:02;98365.31;;;10.18;58.19
74561;BME280;62979;55.720;37.606;2023-03-24T02:18:56;98366.72;;;10.25;58.29
74561;BME280;62979;55.720;37.606;2023-03-24T02:22:05;98357.66;;;10.14;58.32
74561;BME280;62979;55.720;37.606;2023-03-24T02:28:36;98352.88;;;10.23;58.22
74561;BME280;62979;55.720;37.606;2023-03-24T02:31:20;98368.84;;;10.17;58.69
74561;BME280;62979;55.720;37.606;2023-03-24T02:34:43;98345.25;;;10.19;58.61
74561;BME280;62979;55.720;37.606;2023-03-24T02:37:45;98339.13;;;10.20;58.87
74561;BME280;62979;55.720;37.606;2023-03-24T02:40:33;98351.97;;;10.24;58.81
74561;BME280;62979;55.720;37.606;2023-03-24T02:43:17;98338.00;;;10.25;58.61
74561;BME280;62979;55.720;37.606;2023-03-24T02:45:57;98334.41;;;10.28;58.71
74561;BME280;62979;55.720;37.606;2023-03-24T02:48:42;98328.59;;;10.21;58.99
74561;BME280;62979;55.720;37.606;2023-03-24T02:51:25;98329.47;;;10.22;59.02
74561;BME280;62979;55.720;37.606;2023-03-24T02:54:04;98317.38;;;10.19;59.09
74561;BME280;62979;55.720;37.606;2023-03-24T02:56:42;98333.56;;;10.27;59.03
74561;BME280;62979;55.720;37.606;2023-03-24T02:59:17;98325.59;;;10.31;58.90
74561;BME280;62979;55.720;37.606;2023-03-24T03:01:50;98309.41;;;10.22;58.63
74561;BME280;62979;55.720;37.606;2023-03-24T03:04:24;98317.59;;;10.34;58.42
74561;BME280;62979;55.720;37.606;2023-03-24T03:07:00;98323.25;;;10.24;58.73
74561;BME280;62979;55.720;37.606;2023-03-24T03:09:35;98307.31;;;10.31;58.42
74561;BME280;62979;55.720;37.606;2023-03-24T03:12:08;98319.47;;;10.32;58.46
74561;BME280;62979;55.720;37.606;2023-03-24T03:14:40;98317.94;;;10.26;58.37
74561;BME280;62979;55.720;37.606;2023-03-24T03:17:12;98298.81;;;10.25;58.39
74561;BME280;62979;55.720;37.606;2023-03-24T03:19:46;98293.94;;;10.18;58.49
74561;BME280;62979;55.720;37.606;2023-03-24T03:22:20;98293.47;;;10.28;58.39
74561;BME280;62979;55.720;37.606;2023-03-24T03:24:52;98314.34;;;10.28;58.40
74561;BME280;62979;55.720;37.606;2023-03-24T03:27:26;98296.25;;;10.24;58.37
74561;BME280;62979;55.720;37.606;2023-03-24T03:30:00;98282.88;;;10.32;58.44
74561;BME280;62979;55.720;37.606;2023-03-24T03:32:35;98291.63;;;10.31;58.41
74561;BME280;62979;55.720;37.606;2023-03-24T03:35:10;98292.72;;;10.25;58.47
74561;BME280;62979;55.720;37.606;2023-03-24T03:37:48;98280.88;;;10.18;58.97
74561;BME280;62979;55.720;37.606;2023-03-24T03:40:21;98298.94;;;10.22;58.67
74561;BME280;62979;55.720;37.606;2023-03-24T03:42:54;98290.00;;;10.28;58.60
74561;BME280;62979;55.720;37.606;2023-03-24T03:45:21;98285.78;;;10.24;58.82
74561;BME280;62979;55.720;37.606;2023-03-24T03:47:49;98298.69;;;10.28;59.93
74561;BME280;62979;55.720;37.606;2023-03-24T03:50:16;98306.94;;;10.19;61.65
74561;BME280;62979;55.720;37.606;2023-03-24T03:52:43;98296.91;;;9.90;63.87
74561;BME280;62979;55.720;37.606;2023-03-24T03:55:11;98288.31;;;9.88;64.41
74561;BME280;62979;55.720;37.606;2023-03-24T03:57:38;98290.56;;;9.76;65.04
74561;BME280;62979;55.720;37.606;2023-03-24T04:00:11;98286.66;;;9.66;64.81
74561;BME280;62979;55.720;37.606;2023-03-24T04:02:48;98288.81;;;9.56;66.72
74561;BME280;62979;55.720;37.606;2023-03-24T04:05:30;98285.84;;;9.43;66.63
74561;BME280;62979;55.720;37.606;2023-03-24T04:08:06;98298.38;;;9.35;66.60
74561;BME280;62979;55.720;37.606;2023-03-24T04:14:02;98286.69;;;9.24;67.63
74561;BME280;62979;55.720;37.606;2023-03-24T04:16:50;98284.41;;;9.16;68.44
74561;BME280;62979;55.720;37.606;2023-03-24T04:19:34;98293.06;;;9.16;68.80
74561;BME280;62979;55.720;37.606;2023-03-24T04:22:23;98277.50;;;9.15;69.63
74561;BME280;62979;55.720;37.606;2023-03-24T04:24:55;98275.69;;;9.17;70.08
74561;BME280;62979;55.720;37.606;2023-03-24T04:27:32;98270.66;;;9.12;69.91
74561;BME280;62979;55.720;37.606;2023-03-24T04:30:13;98286.63;;;9.05;70.67
74561;BME280;62979;55.720;37.606;2023-03-24T04:32:54;98275.47;;;9.01;71.62
74561;BME280;62979;55.720;37.606;2023-03-24T04:35:26;98266.97;;;8.96;71.58
74561;BME280;62979;55.720;37.606;2023-03-24T04:38:00;98269.53;;;8.97;71.94
74561;BME280;62979;55.720;37.606;2023-03-24T04:40:32;98285.94;;;8.99;72.17
74561;BME280;62979;55.720;37.606;2023-03-24T04:43:08;98282.50;;;8.99;72.12
74561;BME280;62979;55.720;37.606;2023-03-24T04:45:39;98276.28;;;8.81;71.89
74561;BME280;62979;55.720;37.606;2023-03-24T04:48:09;98269.28;;;8.82;72.57
74561;BME280;62979;55.720;37.606;2023-03-24T04:50:39;98266.88;;;8.77;73.60
74561;BME280;62979;55.720;37.606;2023-03-24T04:53:09;98272.09;;;8.77;73.58
74561;BME280;62979;55.720;37.606;2023-03-24T04:55:49;98274.88;;;8.72;73.79
74561;BME280;62979;55.720;37.606;2023-03-24T04:58:23;98263.59;;;8.72;73.79
74561;BME280;62979;55.720;37.606;2023-03-24T05:00:50;98289.84;;;8.67;74.06
74561;BME280;62979;55.720;37.606;2023-03-24T05:03:21;98263.88;;;8.66;74.27
74561;BME280;62979;55.720;37.606;2023-03-24T05:05:49;98269.13;;;8.64;74.38
74561;BME280;62979;55.720;37.606;2023-03-24T05:08:18;98273.41;;;8.65;74.50
74561;BME280;62979;55.720;37.606;2023-03-24T05:10:46;98267.78;;;8.54;74.31
74561;BME280;62979;55.720;37.606;2023-03-24T05:13:13;98264.75;;;8.65;75.73
74561;BME280;62979;55.720;37.606;2023-03-24T05:15:41;98270.50;;;8.51;75.10
74561;BME280;62979;55.720;37.606;2023-03-24T05:18:08;98276.63;;;8.50;76.07
74561;BME280;62979;55.720;37.606;2023-03-24T05:20:36;98279.22;;;8.50;76.64
74561;BME280;62979;55.720;37.606;2023-03-24T05:23:03;98270.41;;;8.54;76.69
74561;BME280;62979;55.720;37.606;2023-03-24T05:25:31;98278.53;;;8.46;78.48
74561;BME280;62979;55.720;37.606;2023-03-24T05:27:58;98268.19;;;8.43;77.72
74561;BME280;62979;55.720;37.606;2023-03-24T05:30:24;98277.66;;;8.46;78.06
74561;BME280;62979;55.720;37.606;2023-03-24T05:32:51;98268.88;;;8.48;78.19
74561;BME280;62979;55.720;37.606;2023-03-24T05:35:18;98277.38;;;8.53;78.06
74561;BME280;62979;55.720;37.606;2023-03-24T05:37:47;98282.00;;;8.45;77.34
74561;BME280;62979;55.720;37.606;2023-03-24T05:40:14;98270.63;;;8.48;77.62
74561;BME280;62979;55.720;37.606;2023-03-24T05:42:41;98271.91;;;8.60;78.09
74561;BME280;62979;55.720;37.606;2023-03-24T05:45:10;98268.59;;;8.56;77.37
74561;BME280;62979;55.720;37.606;2023-03-24T05:47:37;98273.81;;;8.56;77.61
74561;BME280;62979;55.720;37.606;2023-03-24T05:50:05;98262.41;;;8.59;77.40
74561;BME280;62979;55.720;37.606;2023-03-24T05:52:32;98272.88;;;8.57;77.65
74561;BME280;62979;55.720;37.606;2023-03-24T05:55:00;98278.94;;;8.57;77.65
74561;BME280;62979;55.720;37.606;2023-03-24T05:57:28;98269.16;;;8.63;77.82
74561;BME280;62979;55.720;37.606;2023-03-24T05:59:55;98282.38;;;8.58;77.64
74561;BME280;62979;55.720;37.606;2023-03-24T06:02:22;98275.53;;;8.55;77.48
74561;BME280;62979;55.720;37.606;2023-03-24T06:04:50;98263.31;;;8.57;77.95
74561;BME280;62979;55.720;37.606;2023-03-24T06:07:17;98259.22;;;8.50;78.08
74561;BME280;62979;55.720;37.606;2023-03-24T06:09:44;98253.94;;;8.53;79.46
74561;BME280;62979;55.720;37.606;2023-03-24T06:12:17;98273.66;;;8.59;79.05
74561;BME280;62979;55.720;37.606;2023-03-24T06:14:45;98267.50;;;8.62;78.48
74561;BME280;62979;55.720;37.606;2023-03-24T06:17:12;98264.75;;;8.65;78.47
74561;BME280;62979;55.720;37.606;2023-03-24T06:19:40;98262.16;;;8.65;78.23
74561;BME280;62979;55.720;37.606;2023-03-24T06:22:14;98261.34;;;8.63;78.67
74561;BME280;62979;55.720;37.606;2023-03-24T06:24:42;98264.94;;;8.60;78.56
74561;BME280;62979;55.720;37.606;2023-03-24T06:27:09;98277.28;;;8.55;78.46
74561;BME280;62979;55.720;37.606;2023-03-24T06:29:40;98266.03;;;8.54;79.07
74561;BME280;62979;55.720;37.606;2023-03-24T06:32:08;98276.44;;;8.54;78.64
74561;BME280;62979;55.720;37.606;2023-03-24T06:34:35;98246.66;;;8.38;80.79
74561;BME280;62979;55.720;37.606;2023-03-24T06:37:04;98262.94;;;8.45;81.87
74561;BME280;62979;55.720;37.606;2023-03-24T06:39:31;98262.19;;;8.41;81.54
74561;BME280;62979;55.720;37.606;2023-03-24T06:41:58;98261.41;;;8.39;81.24
74561;BME280;62979;55.720;37.606;2023-03-24T06:44:25;98265.50;;;8.46;81.62
74561;BME280;62979;55.720;37.606;2023-03-24T06:46:54;98271.84;;;8.61;82.12
74561;BME280;62979;55.720;37.606;2023-03-24T06:49:21;98261.47;;;8.60;81.17
74561;BME280;62979;55.720;37.606;2023-03-24T06:51:48;98263.31;;;8.57;80.66
74561;BME280;62979;55.720;37.606;2023-03-24T06:54:15;98258.22;;;8.54;80.56
74561;BME280;62979;55.720;37.606;2023-03-24T06:56:42;98256.44;;;8.55;79.96
74561;BME280;62979;55.720;37.606;2023-03-24T06:59:09;98266.69;;;8.60;80.17
74561;BME280;62979;55.720;37.606;2023-03-24T07:01:36;98264.09;;;8.60;79.78
74561;BME280;62979;55.720;37.606;2023-03-24T07:04:05;98264.72;;;8.66;79.97
74561;BME280;62979;55.720;37.606;2023-03-24T07:06:32;98268.75;;;8.73;79.60
74561;BME280;62979;55.720;37.606;2023-03-24T07:08:59;98242.88;;;8.69;79.72
74561;BME280;62979;55.720;37.606;2023-03-24T07:11:27;98255.00;;;8.70;79.33
74561;BME280;62979;55.720;37.606;2023-03-24T07:13:54;98260.88;;;8.75;79.08
74561;BME280;62979;55.720;37.606;2023-03-24T07:16:21;98253.19;;;8.72;79.03
74561;BME280;62979;55.720;37.606;2023-03-24T07:18:47;98255.00;;;8.70;79.04
74561;BME280;62979;55.720;37.606;2023-03-24T07:21:16;98262.16;;;8.65;79.13
74561;BME280;62979;55.720;37.606;2023-03-24T07:23:43;98269.91;;;8.66;79.65
74561;BME280;62979;55.720;37.606;2023-03-24T07:26:10;98256.88;;;8.66;78.98
74561;BME280;62979;55.720;37.606;2023-03-24T07:28:37;98276.91;;;8.66;78.68
74561;BME280;62979;55.720;37.606;2023-03-24T07:31:05;98267.22;;;8.68;78.89
74561;BME280;62979;55.720;37.606;2023-03-24T07:33:35;98266.25;;;8.70;79.08
74561;BME280;62979;55.720;37.606;2023-03-24T07:36:03;98270.09;;;8.62;79.51
74561;BME280;62979;55.720;37.606;2023-03-24T07:38:33;98271.25;;;8.54;79.48
74561;BME280;62979;55.720;37.606;2023-03-24T07:41:00;98277.38;;;8.53;78.88
74561;BME280;62979;55.720;37.606;2023-03-24T07:43:27;98283.72;;;8.46;79.27
74561;BME280;62979;55.720;37.606;2023-03-24T07:45:54;98275.00;;;8.47;79.76
74561;BME280;62979;55.720;37.606;2023-03-24T07:48:21;98270.56;;;8.49;79.52
74561;BME280;62979;55.720;37.606;2023-03-24T07:50:48;98291.47;;;8.48;79.74
74561;BME280;62979;55.720;37.606;2023-03-24T07:53:15;98283.53;;;8.51;79.89
74561;BME280;62979;55.720;37.606;2023-03-24T07:55:45;98280.03;;;8.52;79.66
74561;BME280;62979;55.720;37.606;2023-03-24T07:58:12;98282.59;;;8.53;79.68
74561;BME280;62979;55.720;37.606;2023-03-24T08:00:39;98289.94;;;8.66;79.64
74561;BME280;62979;55.720;37.606;2023-03-24T08:03:08;98289.94;;;8.66;79.46
74561;BME280;62979;55.720;37.606;2023-03-24T08:05:39;98281.63;;;8.56;79.00
74561;BME280;62979;55.720;37.606;2023-03-24T08:08:06;98289.44;;;8.56;79.20
74561;BME280;62979;55.720;37.606;2023-03-24T08:10:33;98283.47;;;8.52;79.34
74561;BME280;62979;55.720;37.606;2023-03-24T08:13:02;98287.00;;;8.51;79.76
74561;BME280;62979;55.720;37.606;2023-03-24T08:15:29;98305.28;;;8.50;79.17
74561;BME280;62979;55.720;37.606;2023-03-24T08:17:56;98300.13;;;8.48;81.03
74561;BME280;62979;55.720;37.606;2023-03-24T08:20:23;98298.13;;;8.55;80.32
74561;BME280;62979;55.720;37.606;2023-03-24T08:22:51;98298.88;;;8.59;79.96
74561;BME280;62979;55.720;37.606;2023-03-24T08:25:21;98293.78;;;8.55;80.21
74561;BME280;62979;55.720;37.606;2023-03-24T08:27:50;98301.19;;;8.66;79.96
74561;BME280;62979;55.720;37.606;2023-03-24T08:30:20;98300.69;;;8.56;79.53
74561;BME280;62979;55.720;37.606;2023-03-24T08:32:50;98291.75;;;8.64;80.02
74561;BME280;62979;55.720;37.606;2023-03-24T08:35:22;98302.69;;;8.72;80.02
74561;BME280;62979;55.720;37.606;2023-03-24T08:37:51;98305.06;;;8.78;79.48
74561;BME280;62979;55.720;37.606;2023-03-24T08:40:19;98293.19;;;8.71;79.30
74561;BME280;62979;55.720;37.606;2023-03-24T08:42:50;98300.72;;;8.78;79.35
74561;BME280;62979;55.720;37.606;2023-03-24T08:45:22;98300.75;;;8.99;79.91
74561;BME280;62979;55.720;37.606;2023-03-24T08:47:52;98298.47;;;9.12;79.78
74561;BME280;62979;55.720;37.606;2023-03-24T08:50:22;98297.59;;;9.13;79.19
74561;BME280;62979;55.720;37.606;2023-03-24T08:52:52;98294.13;;;9.12;78.72
74561;BME280;62979;55.720;37.606;2023-03-24T08:55:21;98299.16;;;9.17;78.68
74561;BME280;62979;55.720;37.606;2023-03-24T08:57:48;98277.63;;;9.12;78.55
74561;BME280;62979;55.720;37.606;2023-03-24T09:00:17;98311.22;;;9.19;78.50
74561;BME280;62979;55.720;37.606;2023-03-24T09:02:48;98300.00;;;9.17;78.54
74561;BME280;62979;55.720;37.606;2023-03-24T09:05:19;98304.94;;;9.24;78.31
74561;BME280;62979;55.720;37.606;2023-03-24T09:07:48;98297.72;;;9.30;78.88
74561;BME280;62979;55.720;37.606;2023-03-24T09:10:16;98300.28;;;9.32;78.40
74561;BME280;62979;55.720;37.606;2023-03-24T09:12:44;98315.06;;;9.31;77.68
74561;BME280;62979;55.720;37.606;2023-03-24T09:15:12;98313.13;;;9.36;77.81
74561;BME280;62979;55.720;37.606;2023-03-24T09:17:39;98291.84;;;9.25;77.64
74561;BME280;62979;55.720;37.606;2023-03-24T09:20:11;98318.03;;;9.44;77.73
74561;BME280;62979;55.720;37.606;2023-03-24T09:22:41;98310.25;;;9.42;78.17
74561;BME280;62979;55.720;37.606;2023-03-24T09:25:11;98320.28;;;9.31;76.79
74561;BME280;62979;55.720;37.606;2023-03-24T09:27:39;98326.38;;;9.32;77.49
74561;BME280;62979;55.720;37.606;2023-03-24T09:30:07;98328.50;;;9.22;77.38
74561;BME280;62979;55.720;37.606;2023-03-24T09:32:36;98323.94;;;9.27;77.74
74561;BME280;62979;55.720;37.606;2023-03-24T09:35:03;98318.25;;;9.17;77.59
74561;BME280;62979;55.720;37.606;2023-03-24T09:37:34;98313.34;;;9.32;77.95
74561;BME280;62979;55.720;37.606;2023-03-24T09:40:03;98323.44;;;9.39;78.03
74561;BME280;62979;55.720;37.606;2023-03-24T09:42:34;98331.88;;;9.46;78.17
74561;BME280;62979;55.720;37.606;2023-03-24T09:45:09;98336.22;;;9.46;77.71
74561;BME280;62979;55.720;37.606;2023-03-24T09:47:45;98336.22;;;9.46;77.98
74561;BME280;62979;55.720;37.606;2023-03-24T09:50:20;98337.13;;;9.45;77.70
74561;BME280;62979;55.720;37.606;2023-03-24T09:52:54;98354.88;;;9.36;76.95
74561;BME280;62979;55.720;37.606;2023-03-24T09:55:26;98341.16;;;9.31;77.52
74561;BME280;62979;55.720;37.606;2023-03-24T09:57:57;98345.31;;;9.15;77.28
74561;BME280;62979;55.720;37.606;2023-03-24T10:00:31;98332.59;;;9.07;77.30
74561;BME280;62979;55.720;37.606;2023-03-24T10:03:05;98332.34;;;8.91;77.33
74561;BME280;62979;55.720;37.606;2023-03-24T10:05:44;98352.00;;;9.00;77.64
74561;BME280;62979;55.720;37.606;2023-03-24T10:08:21;98338.84;;;8.81;77.29
74561;BME280;62979;55.720;37.606;2023-03-24T10:10:56;98351.50;;;8.90;78.00
74561;BME280;62979;55.720;37.606;2023-03-24T10:13:35;98326.91;;;8.75;78.04
74561;BME280;62979;55.720;37.606;2023-03-24T10:16:18;98357.13;;;8.79;77.67
74561;BME280;62979;55.720;37.606;2023-03-24T10:18:57;98354.94;;;8.69;77.99
74561;BME280;62979;55.720;37.606;2023-03-24T10:21:34;98318.97;;;8.55;78.35
74561;BME280;62979;55.720;37.606;2023-03-24T10:24:11;98347.38;;;8.85;78.63
74561;BME280;62979;55.720;37.606;2023-03-24T10:26:48;98352.34;;;8.91;78.02
74561;BME280;62979;55.720;37.606;2023-03-24T10:29:23;98339.63;;;8.83;77.73
74561;BME280;62979;55.720;37.606;2023-03-24T10:31:58;98348.91;;;8.90;77.26
74561;BME280;62979;55.720;37.606;2023-03-24T10:34:30;98358.19;;;8.97;77.32
74561;BME280;62979;55.720;37.606;2023-03-24T10:37:01;98363.16;;;9.04;77.39
74561;BME280;62979;55.720;37.606;2023-03-24T10:39:31;98342.28;;;9.04;77.21
74561;BME280;62979;55.720;37.606;2023-03-24T10:41:58;98358.41;;;9.13;76.30
74561;BME280;62979;55.720;37.606;2023-03-24T10:44:26;98357.13;;;9.24;76.26
74561;BME280;62979;55.720;37.606;2023-03-24T10:46:55;98371.44;;;9.35;76.22
74561;BME280;62979;55.720;37.606;2023-03-24T10:49:27;98358.53;;;9.32;75.40
74561;BME280;62979;55.720;37.606;2023-03-24T10:52:00;98372.94;;;9.41;75.49
74561;BME280;62979;55.720;37.606;2023-03-24T10:54:31;98376.53;;;9.38;75.43
74561;BME280;62979;55.720;37.606;2023-03-24T10:57:03;98373.66;;;9.45;75.59
74561;BME280;62979;55.720;37.606;2023-03-24T10:59:51;98374.47;;;9.47;75.06
74561;BME280;62979;55.720;37.606;2023-03-24T11:02:23;98380.72;;;9.42;74.13
74561;BME280;62979;55.720;37.606;2023-03-24T11:04:55;98378.75;;;9.48;74.70
74561;BME280;62979;55.720;37.606;2023-03-24T11:07:28;98379.06;;;9.40;73.90
74561;BME280;62979;55.720;37.606;2023-03-24T11:10:04;98380.94;;;9.58;74.19
74561;BME280;62979;55.720;37.606;2023-03-24T11:12:34;98392.78;;;9.65;73.60
74561;BME280;62979;55.720;37.606;2023-03-24T11:15:14;98380.06;;;9.58;72.86
74561;BME280;62979;55.720;37.606;2023-03-24T11:17:43;98389.34;;;10.06;72.88
74561;BME280;62979;55.720;37.606;2023-03-24T11:20:18;98387.56;;;10.66;71.41
74561;BME280;62979;55.720;37.606;2023-03-24T11:22:55;98380.38;;;10.90;69.36
74561;BME280;62979;55.720;37.606;2023-03-24T11:25:28;98381.19;;;10.91;68.81
74561;BME280;62979;55.720;37.606;2023-03-24T11:27:59;98381.13;;;11.29;68.89
74561;BME280;62979;55.720;37.606;2023-03-24T11:30:32;98372.50;;;11.98;66.69
74561;BME280;62979;55.720;37.606;2023-03-24T11:33:02;98375.56;;;12.39;65.59
74561;BME280;62979;55.720;37.606;2023-03-24T11:35:30;98381.56;;;12.91;63.54
74561;BME280;62979;55.720;37.606;2023-03-24T11:38:02;98384.66;;;12.50;62.54
74561;BME280;62979;55.720;37.606;2023-03-24T11:40:33;98400.06;;;12.23;63.09
74561;BME280;62979;55.720;37.606;2023-03-24T11:43:00;98393.22;;;11.85;64.74
74561;BME280;62979;55.720;37.606;2023-03-24T11:45:35;98393.34;;;11.65;64.67
74561;BME280;62979;55.720;37.606;2023-03-24T11:48:12;98390.72;;;11.47;65.91
74561;BME280;62979;55.720;37.606;2023-03-24T11:50:52;98403.19;;;11.42;65.16
74561;BME280;62979;55.720;37.606;2023-03-24T11:53:24;98408.09;;;11.48;65.76
74561;BME280;62979;55.720;37.606;2023-03-24T11:56:01;98409.22;;;11.25;65.45
74561;BME280;62979;55.720;37.606;2023-03-24T11:58:37;98404.84;;;11.26;65.70
74561;BME280;62979;55.720;37.606;2023-03-24T12:01:15;98403.19;;;11.06;65.92
74561;BME280;62979;55.720;37.606;2023-03-24T12:06:56;98410.59;;;10.77;67.25
74561;BME280;62979;55.720;37.606;2023-03-24T12:09:43;98414.06;;;10.78;67.02
74561;BME280;62979;55.720;37.606;2023-03-24T12:12:28;98429.19;;;10.71;66.84
74561;BME280;62979;55.720;37.606;2023-03-24T12:15:24;98425.88;;;10.67;68.56
74561;BME280;62979;55.720;37.606;2023-03-24T12:18:10;98418.06;;;10.47;67.64
74561;BME280;62979;55.720;37.606;2023-03-24T12:21:01;98426.91;;;10.44;68.47
74561;BME280;62979;55.720;37.606;2023-03-24T12:23:49;98445.66;;;10.54;68.49
74561;BME280;62979;55.720;37.606;2023-03-24T12:26:24;98433.78;;;10.66;68.52
74561;BME280;62979;55.720;37.606;2023-03-24T12:29:09;98441.16;;;11.14;67.51
74561;BME280;62979;55.720;37.606;2023-03-24T12:31:58;98432.13;;;11.75;65.36
74561;BME280;62979;55.720;37.606;2023-03-24T12:34:55;98430.34;;;12.28;62.16
74561;BME280;62979;55.720;37.606;2023-03-24T12:37:45;98432.50;;;12.20;62.87
74561;BME280;62979;55.720;37.606;2023-03-24T12:44:05;98434.25;;;11.67;63.84
74561;BME280;62979;55.720;37.606;2023-03-24T12:46:43;98443.31;;;11.60;63.58
74561;BME280;62979;55.720;37.606;2023-03-24T12:49:40;98443.06;;;11.47;64.01
74561;BME280;62979;55.720;37.606;2023-03-24T12:52:24;98439.22;;;12.26;64.21
74561;BME280;62979;55.720;37.606;2023-03-24T12:55:09;98431.94;;;13.91;59.39
74561;BME280;62979;55.720;37.606;2023-03-24T12:57:45;98429.41;;;14.34;58.20
74561;BME280;62979;55.720;37.606;2023-03-24T13:00:21;98425.16;;;13.57;55.15
74561;BME280;62979;55.720;37.606;2023-03-24T13:02:55;98426.47;;;12.84;57.67
74561;BME280;62979;55.720;37.606;2023-03-24T13:05:28;98439.41;;;12.38;58.91
74561;BME280;62979;55.720;37.606;2023-03-24T13:08:01;98443.75;;;12.39;60.37
74561;BME280;62979;55.720;37.606;2023-03-24T13:10:34;98450.19;;;12.50;61.33
74561;BME280;62979;55.720;37.606;2023-03-24T13:13:09;98441.09;;;12.57;59.72
74561;BME280;62979;55.720;37.606;2023-03-24T13:15:45;98436.56;;;12.76;60.54
74561;BME280;62979;55.720;37.606;2023-03-24T13:18:23;98456.16;;;13.02;58.39
74561;BME280;62979;55.720;37.606;2023-03-24T13:20:59;98451.94;;;13.32;58.53
74561;BME280;62979;55.720;37.606;2023-03-24T13:23:49;98451.56;;;13.69;56.35
74561;BME280;62979;55.720;37.606;2023-03-24T13:26:25;98449.38;;;13.92;55.96
74561;BME280;62979;55.720;37.606;2023-03-24T13:29:12;98463.47;;;13.91;56.55
74561;BME280;62979;55.720;37.606;2023-03-24T13:31:53;98446.84;;;14.35;53.65
74561;BME280;62979;55.720;37.606;2023-03-24T13:34:27;98450.19;;;14.96;51.61
74561;BME280;62979;55.720;37.606;2023-03-24T13:37:00;98452.88;;;15.23;50.86